createdAt,value
2023-04-19T00:02:26.913Z,25.60
2023-04-19T00:04:55.783Z,24.33
2023-04-19T00:07:23.050Z,23.23
2023-04-19T00:09:50.159Z,22.92
2023-04-19T00:12:17.281Z,22.00
2023-04-19T00:14:44.389Z,21.60
2023-04-19T00:17:11.799Z,20.80
2023-04-19T00:19:39.205Z,20.40
2023-04-19T00:22:06.402Z,19.42
2023-04-19T00:24:33.515Z,18.58
2023-04-19T00:27:00.693Z,18.00
2023-04-19T00:29:28.176Z,19.55
2023-04-19T00:31:55.274Z,20.08
2023-04-19T00:34:22.372Z,20.98
2023-04-19T00:36:49.496Z,21.80
2023-04-19T00:39:16.592Z,22.05
2023-04-19T00:41:44.216Z,22.75
2023-04-19T00:44:11.321Z,21.20
2023-04-19T00:46:38.832Z,22.38
2023-04-19T00:49:06.098Z,21.88
2023-04-19T00:51:33.184Z,22.30
2023-04-19T00:54:00.260Z,23.05
2023-04-19T00:56:27.745Z,23.13
2023-04-19T00:58:55.579Z,23.35
2023-04-19T01:01:22.820Z,23.23
2023-04-19T01:03:50.088Z,22.83
2023-04-19T01:06:17.281Z,22.73
2023-04-19T01:08:44.397Z,21.65
2023-04-19T01:11:11.525Z,22.23
2023-04-19T01:13:38.619Z,25.50
2023-04-19T01:16:06.273Z,26.10
2023-04-19T01:18:37.481Z,33.40
2023-04-19T01:21:04.810Z,28.45
2023-04-19T01:23:31.901Z,32.30
2023-04-19T01:25:59.029Z,33.72
2023-04-19T01:28:26.148Z,33.72
2023-04-19T01:30:54.139Z,33.00
2023-04-19T01:33:21.821Z,33.10
2023-04-19T01:35:48.981Z,34.15
2023-04-19T01:38:16.468Z,34.95
2023-04-19T01:40:43.644Z,32.92
2023-04-19T01:43:11.899Z,32.38
2023-04-19T01:45:39.016Z,31.98
2023-04-19T01:48:06.406Z,32.88
2023-04-19T01:50:33.554Z,34.58
2023-04-19T01:53:00.754Z,34.25
2023-04-19T01:55:27.927Z,27.95
2023-04-19T01:57:55.204Z,28.77
2023-04-19T02:00:22.534Z,25.73
2023-04-19T02:02:49.855Z,25.48
2023-04-19T02:05:17.241Z,25.40
2023-04-19T02:07:44.424Z,26.20
2023-04-19T02:10:12.014Z,27.52
2023-04-19T02:12:39.232Z,26.50
2023-04-19T02:15:06.672Z,28.35
2023-04-19T02:17:33.864Z,28.90
2023-04-19T02:20:00.999Z,32.60
2023-04-19T02:22:28.107Z,35.53
2023-04-19T02:24:55.225Z,34.55
2023-04-19T02:27:22.340Z,34.97
2023-04-19T02:29:49.459Z,36.08
2023-04-19T02:32:16.652Z,34.05
2023-04-19T02:34:43.761Z,34.75
2023-04-19T02:37:10.902Z,33.08
2023-04-19T02:39:38.040Z,39.38
2023-04-19T02:42:05.179Z,39.05
2023-04-19T02:44:32.293Z,37.65
2023-04-19T02:46:59.495Z,36.60
2023-04-19T02:49:26.837Z,35.20
2023-04-19T02:51:53.982Z,34.97
2023-04-19T02:54:21.109Z,35.75
2023-04-19T02:56:48.219Z,31.90
2023-04-19T02:59:15.317Z,33.00
2023-04-19T03:01:42.631Z,32.95
2023-04-19T03:04:09.858Z,37.92
2023-04-19T03:06:37.780Z,40.22
2023-04-19T03:09:04.974Z,40.75
2023-04-19T03:11:32.061Z,41.45
2023-04-19T03:13:59.135Z,39.60
2023-04-19T03:16:26.722Z,46.25
2023-04-19T03:18:53.893Z,41.97
2023-04-19T03:21:21.052Z,42.47
2023-04-19T03:23:48.204Z,42.08
2023-04-19T03:26:15.310Z,44.47
2023-04-19T03:28:42.435Z,42.70
2023-04-19T03:31:09.565Z,41.85
2023-04-19T03:33:36.662Z,40.70
2023-04-19T03:36:03.873Z,38.28
2023-04-19T03:38:31.175Z,40.75
2023-04-19T03:40:58.262Z,38.10
2023-04-19T03:43:25.424Z,38.47
2023-04-19T03:45:52.582Z,37.97
2023-04-19T03:48:19.707Z,36.90
2023-04-19T03:50:46.823Z,36.00
2023-04-19T03:53:14.324Z,28.38
2023-04-19T03:55:41.435Z,29.85
2023-04-19T03:58:08.562Z,31.25
2023-04-19T04:00:37.030Z,32.58
2023-04-19T04:03:04.294Z,32.08
2023-04-19T04:05:31.674Z,32.25
2023-04-19T04:07:58.929Z,32.80
2023-04-19T04:10:26.043Z,26.77
2023-04-19T04:12:53.179Z,27.70
2023-04-19T04:15:20.439Z,30.52
2023-04-19T04:17:47.599Z,33.58
2023-04-19T04:20:16.477Z,37.30
2023-04-19T04:22:43.902Z,37.17
2023-04-19T04:25:11.036Z,34.22
2023-04-19T04:27:38.139Z,35.08
2023-04-19T04:30:05.877Z,29.77
2023-04-19T04:32:35.856Z,25.02
2023-04-19T04:35:03.698Z,27.00
2023-04-19T04:37:34.055Z,28.50
2023-04-19T04:40:01.702Z,36.78
2023-04-19T04:42:31.443Z,37.42
2023-04-19T04:44:58.758Z,34.08
2023-04-19T04:47:26.295Z,36.22
2023-04-19T04:49:53.741Z,37.70
2023-04-19T04:52:21.270Z,41.03
2023-04-19T04:54:48.426Z,40.38
2023-04-19T04:57:15.895Z,45.88
2023-04-19T04:59:43.038Z,43.17
2023-04-19T05:02:10.940Z,40.58
2023-04-19T05:04:38.089Z,35.75
2023-04-19T05:09:49.734Z,30.27
2023-04-19T05:12:17.104Z,30.30
2023-04-19T05:14:44.229Z,28.88
2023-04-19T05:17:11.330Z,30.75
2023-04-19T05:19:38.484Z,29.92
2023-04-19T05:22:05.689Z,33.95
2023-04-19T05:24:32.825Z,34.47
2023-04-19T05:26:59.986Z,42.05
2023-04-19T05:29:27.076Z,41.15
2023-04-19T05:31:54.342Z,36.35
2023-04-19T05:34:22.371Z,34.67
2023-04-19T05:36:49.620Z,36.70
2023-04-19T05:39:17.259Z,37.20
2023-04-19T05:41:44.526Z,35.38
2023-04-19T05:44:11.631Z,36.05
2023-04-19T05:46:38.845Z,35.53
2023-04-19T05:49:06.012Z,34.22
2023-04-19T05:51:33.153Z,31.80
2023-04-19T05:54:01.195Z,32.38
2023-04-19T05:56:28.326Z,29.70
2023-04-19T05:58:56.318Z,28.23
2023-04-19T06:01:23.973Z,26.90
2023-04-19T06:03:53.503Z,26.13
2023-04-19T06:06:22.550Z,27.73
2023-04-19T06:08:50.816Z,29.52
2023-04-19T06:11:26.534Z,41.35
2023-04-19T06:13:58.896Z,34.25
2023-04-19T06:16:26.859Z,37.88
2023-04-19T06:18:54.044Z,34.42
2023-04-19T06:21:21.172Z,27.73
2023-04-19T06:23:48.330Z,24.77
2023-04-19T06:26:15.484Z,24.35
2023-04-19T06:28:42.604Z,40.53
2023-04-19T06:31:09.815Z,23.77
2023-04-19T06:33:37.029Z,26.40
2023-04-19T06:36:04.293Z,25.85
2023-04-19T06:38:31.493Z,26.23
2023-04-19T06:40:58.608Z,28.98
2023-04-19T06:43:25.815Z,24.38
2023-04-19T06:46:02.913Z,25.52
2023-04-19T06:48:30.056Z,26.25
2023-04-19T06:50:57.468Z,25.20
2023-04-19T06:53:24.839Z,25.60
2023-04-19T06:55:54.308Z,32.15
2023-04-19T06:58:21.432Z,46.65
2023-04-19T07:00:48.580Z,40.70
2023-04-19T07:03:15.837Z,30.73
2023-04-19T07:05:43.033Z,35.78
2023-04-19T07:08:10.170Z,40.72
2023-04-19T07:10:37.281Z,46.75
2023-04-19T07:13:04.459Z,28.08
2023-04-19T07:15:31.579Z,25.77
2023-04-19T07:17:58.721Z,24.15
2023-04-19T07:20:25.928Z,23.45
2023-04-19T07:22:53.147Z,25.38
2023-04-19T07:25:20.359Z,22.40
2023-04-19T07:27:47.535Z,25.65
2023-04-19T07:30:14.714Z,27.27
2023-04-19T07:32:42.148Z,26.38
2023-04-19T07:35:09.527Z,21.48
2023-04-19T07:37:36.653Z,15.63
2023-04-19T07:40:03.983Z,11.30
2023-04-19T07:42:31.214Z,9.68
2023-04-19T07:44:59.652Z,9.63
2023-04-19T07:47:26.806Z,8.30
2023-04-19T07:49:54.100Z,11.23
2023-04-19T07:52:21.267Z,12.38
2023-04-19T07:54:48.414Z,8.10
2023-04-19T07:57:15.566Z,7.78
2023-04-19T07:59:42.778Z,8.52
2023-04-19T08:02:09.994Z,8.52
2023-04-19T08:04:38.095Z,8.70
2023-04-19T08:07:05.464Z,8.57
2023-04-19T08:09:34.313Z,11.70
2023-04-19T08:12:01.669Z,10.20
2023-04-19T08:14:40.464Z,10.35
2023-04-19T08:17:25.112Z,9.48
2023-04-19T08:19:53.080Z,8.70
2023-04-19T08:22:21.195Z,8.35
2023-04-19T08:24:49.883Z,7.05
2023-04-19T08:27:17.017Z,6.55
2023-04-19T08:29:44.140Z,7.63
2023-04-19T08:32:12.045Z,6.40
2023-04-19T08:34:39.672Z,6.20
2023-04-19T08:37:10.346Z,5.70
2023-04-19T08:39:37.840Z,5.15
2023-04-19T08:42:11.018Z,6.10
2023-04-19T08:44:59.522Z,7.45
2023-04-19T08:47:37.215Z,9.80
2023-04-19T08:50:20.332Z,12.82
2023-04-19T08:52:59.089Z,11.85
2023-04-19T08:55:32.752Z,10.57
2023-04-19T08:57:59.911Z,8.68
2023-04-19T09:00:27.063Z,8.57
2023-04-19T09:02:58.629Z,9.70
2023-04-19T09:05:26.167Z,10.25
2023-04-19T09:07:53.525Z,10.38
2023-04-19T09:10:20.939Z,10.68
2023-04-19T09:13:01.984Z,16.48
2023-04-19T09:15:43.690Z,20.42
2023-04-19T09:18:11.179Z,23.13
2023-04-19T09:20:42.427Z,18.77
2023-04-19T09:23:12.546Z,13.63
2023-04-19T09:26:05.824Z,9.38
2023-04-19T09:28:27.759Z,12.38
2023-04-19T09:31:03.488Z,14.15
2023-04-19T09:33:42.144Z,13.07
2023-04-19T09:36:09.561Z,16.25
2023-04-19T09:38:49.109Z,17.48
2023-04-19T09:41:17.411Z,14.13
2023-04-19T09:44:02.341Z,15.18
2023-04-19T09:46:34.877Z,14.02
2023-04-19T09:49:23.213Z,11.57
2023-04-19T09:51:57.847Z,10.82
2023-04-19T09:54:25.281Z,19.58
2023-04-19T09:56:57.387Z,24.90
2023-04-19T09:59:25.941Z,27.05
2023-04-19T10:01:56.601Z,16.15
2023-04-19T10:04:29.465Z,18.58
2023-04-19T10:09:49.628Z,11.52
2023-04-19T10:12:45.659Z,12.38
2023-04-19T10:15:07.344Z,13.85
2023-04-19T10:17:34.530Z,11.13
2023-04-19T10:20:06.883Z,35.72
2023-04-19T10:22:37.717Z,13.98
2023-04-19T10:25:27.889Z,11.48
2023-04-19T10:27:55.028Z,12.80
2023-04-19T10:30:27.122Z,11.23
2023-04-19T10:32:56.317Z,10.75
2023-04-19T10:35:24.863Z,10.45
2023-04-19T10:38:08.053Z,10.43
2023-04-19T10:40:56.700Z,9.80
2023-04-19T10:43:35.751Z,10.02
2023-04-19T10:46:03.852Z,13.23
2023-04-19T10:48:38.728Z,9.73
2023-04-19T10:51:12.221Z,9.10
2023-04-19T10:53:58.308Z,13.43
2023-04-19T10:56:34.656Z,10.63
2023-04-19T10:59:02.251Z,10.48
2023-04-19T11:01:44.979Z,11.95
2023-04-19T11:04:15.829Z,12.73
2023-04-19T11:06:55.353Z,12.60
2023-04-19T11:09:26.224Z,16.02
2023-04-19T11:11:54.012Z,11.95
2023-04-19T11:14:21.631Z,13.63
2023-04-19T11:16:48.879Z,10.13
2023-04-19T11:19:19.284Z,10.18
2023-04-19T11:21:46.924Z,9.10
2023-04-19T11:24:16.277Z,9.27
2023-04-19T11:26:44.209Z,12.23
2023-04-19T11:29:11.305Z,18.25
2023-04-19T11:31:38.734Z,18.73
2023-04-19T11:34:06.014Z,23.50
2023-04-19T11:36:36.693Z,37.58
2023-04-19T11:39:06.437Z,33.00
2023-04-19T11:41:39.699Z,20.75
2023-04-19T11:44:16.938Z,19.73
2023-04-19T11:46:44.261Z,17.30
2023-04-19T11:49:11.407Z,15.18
2023-04-19T11:51:42.419Z,15.35
2023-04-19T11:54:16.975Z,18.02
2023-04-19T11:56:59.640Z,15.40
2023-04-19T11:59:26.786Z,13.57
2023-04-19T12:01:53.964Z,12.25
2023-04-19T12:04:21.980Z,12.82
2023-04-19T12:06:57.431Z,12.73
2023-04-19T12:09:24.565Z,13.65
2023-04-19T12:11:51.782Z,14.50
2023-04-19T12:14:22.864Z,15.45
2023-04-19T12:17:09.272Z,21.75
2023-04-19T12:19:37.249Z,24.38
2023-04-19T12:22:10.940Z,15.73
2023-04-19T12:24:38.711Z,14.13
2023-04-19T12:27:06.073Z,13.65
2023-04-19T12:29:34.381Z,21.30
2023-04-19T12:32:01.560Z,21.73
2023-04-19T12:34:28.829Z,15.70
2023-04-19T12:36:56.192Z,16.27
2023-04-19T12:39:23.712Z,12.30
2023-04-19T12:41:51.134Z,11.77
2023-04-19T12:44:18.252Z,11.77
2023-04-19T12:46:45.404Z,13.75
2023-04-19T12:49:12.510Z,12.50
2023-04-19T12:51:39.634Z,11.75
2023-04-19T12:54:07.596Z,13.57
2023-04-19T12:56:35.130Z,18.80
2023-04-19T12:59:02.381Z,22.83
2023-04-19T13:01:29.669Z,17.85
2023-04-19T13:03:59.365Z,33.70
2023-04-19T13:06:27.749Z,21.05
2023-04-19T13:08:55.249Z,20.85
2023-04-19T13:11:23.523Z,26.83
2023-04-19T13:13:52.018Z,16.70
2023-04-19T13:16:19.777Z,16.45
2023-04-19T13:18:47.107Z,19.85
2023-04-19T13:21:14.263Z,27.00
2023-04-19T13:23:43.008Z,22.92
2023-04-19T13:26:10.624Z,13.50
2023-04-19T13:28:37.800Z,17.20
2023-04-19T13:31:05.595Z,16.95
2023-04-19T13:33:32.813Z,34.33
2023-04-19T13:35:59.973Z,223.60
2023-04-19T13:38:27.094Z,205.02
2023-04-19T13:40:54.289Z,68.10
2023-04-19T13:43:21.792Z,36.92
2023-04-19T13:45:48.932Z,26.25
2023-04-19T13:48:16.060Z,19.75
2023-04-19T13:50:43.254Z,21.75
2023-04-19T13:53:10.563Z,20.27
2023-04-19T13:55:37.726Z,17.73
2023-04-19T13:58:04.859Z,27.67
2023-04-19T14:00:32.023Z,116.68
2023-04-19T14:02:59.275Z,80.30
2023-04-19T14:05:26.503Z,90.25
2023-04-19T14:07:53.611Z,62.17
2023-04-19T14:10:20.791Z,82.05
2023-04-19T14:12:49.071Z,33.45
2023-04-19T14:15:16.358Z,82.43
2023-04-19T14:17:43.462Z,26.38
2023-04-19T14:20:11.217Z,27.23
2023-04-19T14:22:38.330Z,21.15
2023-04-19T14:25:05.992Z,18.77
2023-04-19T14:27:33.120Z,21.55
2023-04-19T14:30:00.323Z,16.20
2023-04-19T14:32:27.588Z,14.98
2023-04-19T14:34:56.155Z,13.85
2023-04-19T14:37:23.892Z,15.57
2023-04-19T14:39:51.173Z,24.20
2023-04-19T14:42:20.131Z,15.23
2023-04-19T14:44:50.616Z,14.88
2023-04-19T14:47:17.705Z,14.40
2023-04-19T14:49:44.832Z,38.42
2023-04-19T14:52:12.027Z,19.67
2023-04-19T14:54:39.231Z,49.35
2023-04-19T14:57:06.530Z,34.28
2023-04-19T14:59:33.722Z,27.38
2023-04-19T15:02:00.853Z,23.75
2023-04-19T15:04:28.176Z,18.88
2023-04-19T15:06:55.552Z,15.13
2023-04-19T15:09:22.746Z,13.48
2023-04-19T15:11:49.982Z,13.13
2023-04-19T15:14:17.076Z,13.18
2023-04-19T15:16:44.229Z,32.10
2023-04-19T15:19:11.363Z,45.28
2023-04-19T15:21:38.535Z,62.38
2023-04-19T15:24:07.506Z,43.85
2023-04-19T15:26:35.756Z,33.13
2023-04-19T15:29:02.902Z,19.15
2023-04-19T15:31:30.129Z,18.92
2023-04-19T15:33:57.326Z,20.65
2023-04-19T15:36:24.452Z,21.50
2023-04-19T15:38:51.560Z,21.73
2023-04-19T15:41:18.741Z,22.25
2023-04-19T15:43:45.868Z,24.58
2023-04-19T15:46:13.460Z,25.23
2023-04-19T15:48:40.934Z,22.33
2023-04-19T15:51:08.659Z,20.75
2023-04-19T15:53:36.192Z,20.08
2023-04-19T15:56:03.491Z,24.27
2023-04-19T15:58:30.591Z,28.17
2023-04-19T16:00:57.703Z,29.15
2023-04-19T16:03:25.002Z,28.45
2023-04-19T16:05:52.268Z,37.83
2023-04-19T16:08:19.722Z,26.35
2023-04-19T16:10:47.175Z,24.35
2023-04-19T16:13:14.453Z,26.30
2023-04-19T16:15:42.034Z,28.48
2023-04-19T16:18:09.280Z,29.15
2023-04-19T16:20:36.597Z,26.52
2023-04-19T16:23:03.819Z,27.90
2023-04-19T16:25:31.291Z,29.55
2023-04-19T16:27:58.390Z,27.50
2023-04-19T16:30:26.874Z,27.70
2023-04-19T16:32:57.011Z,28.25
2023-04-19T16:35:24.509Z,33.22
2023-04-19T16:37:53.230Z,31.35
2023-04-19T16:40:22.278Z,33.80
2023-04-19T16:42:49.420Z,33.78
2023-04-19T16:45:17.682Z,41.78
2023-04-19T16:47:46.032Z,111.07
2023-04-19T16:50:14.138Z,45.33
2023-04-19T16:52:41.384Z,39.30
2023-04-19T16:55:08.641Z,33.60
2023-04-19T16:57:36.650Z,25.92
2023-04-19T17:00:05.658Z,31.70
2023-04-19T17:02:32.966Z,25.88
2023-04-19T17:05:00.490Z,21.67
2023-04-19T17:07:27.813Z,25.08
2023-04-19T17:09:55.453Z,27.23
2023-04-19T17:12:22.669Z,49.47
2023-04-19T17:14:49.789Z,44.65
2023-04-19T17:17:19.922Z,48.55
2023-04-19T17:19:47.126Z,34.25
2023-04-19T17:22:15.018Z,39.47
2023-04-19T17:24:42.284Z,31.40
2023-04-19T17:27:09.536Z,31.60
2023-04-19T17:29:36.913Z,29.05
2023-04-19T17:32:04.289Z,28.15
2023-04-19T17:34:31.477Z,35.13
2023-04-19T17:36:59.458Z,36.88
2023-04-19T17:39:27.971Z,43.25
2023-04-19T17:41:55.761Z,42.22
2023-04-19T17:44:23.195Z,38.88
2023-04-19T17:46:50.457Z,36.42
2023-04-19T17:49:20.015Z,35.35
2023-04-19T17:51:47.545Z,51.47
2023-04-19T17:54:15.003Z,98.55
2023-04-19T17:56:42.198Z,86.75
2023-04-19T17:59:09.401Z,78.80
2023-04-19T18:01:36.668Z,42.47
2023-04-19T18:04:04.440Z,32.05
2023-04-19T18:06:31.852Z,38.83
2023-04-19T18:08:59.139Z,30.35
2023-04-19T18:11:28.313Z,39.45
2023-04-19T18:13:55.826Z,45.92
2023-04-19T18:16:23.114Z,44.67
2023-04-19T18:18:50.336Z,51.38
2023-04-19T18:21:18.514Z,41.60
2023-04-19T18:23:45.770Z,40.33
2023-04-19T18:26:12.968Z,47.67
2023-04-19T18:28:40.370Z,47.20
2023-04-19T18:31:08.334Z,51.38
2023-04-19T18:33:35.562Z,47.85
2023-04-19T18:36:02.673Z,40.35
2023-04-19T18:38:29.844Z,34.05
2023-04-19T18:40:57.077Z,28.65
2023-04-19T18:43:24.764Z,29.55
2023-04-19T18:45:55.804Z,32.55
2023-04-19T18:48:27.842Z,32.50
2023-04-19T18:50:55.455Z,38.58
2023-04-19T18:53:24.955Z,41.42
2023-04-19T18:55:55.380Z,29.88
2023-04-19T18:58:22.661Z,25.98
2023-04-19T19:00:49.764Z,22.85
2023-04-19T19:03:48.197Z,22.85
2023-04-19T19:06:04.311Z,21.40
2023-04-19T19:08:34.076Z,23.45
2023-04-19T19:13:31.261Z,23.90
2023-04-19T19:15:58.611Z,24.90
2023-04-19T19:18:27.686Z,36.22
2023-04-19T19:20:59.093Z,28.23
2023-04-19T19:25:58.764Z,26.63
2023-04-19T19:28:26.838Z,29.55
2023-04-19T19:30:54.028Z,26.15
2023-04-19T19:33:21.282Z,29.30
2023-04-19T19:35:48.415Z,28.35
2023-04-19T19:38:16.401Z,27.88
2023-04-19T19:41:17.741Z,28.73
2023-04-19T19:43:30.688Z,32.08
2023-04-19T19:45:57.876Z,33.67
2023-04-19T19:48:29.018Z,32.50
2023-04-19T19:53:28.388Z,53.80
2023-04-19T19:55:56.812Z,66.97
2023-04-19T19:58:47.519Z,64.60
2023-04-19T20:01:11.228Z,59.75
2023-04-19T20:03:38.543Z,47.75
2023-04-19T20:08:41.374Z,43.22
2023-04-19T20:11:11.063Z,39.95
2023-04-19T20:13:38.217Z,41.95
2023-04-19T20:16:06.429Z,44.05
2023-04-19T20:18:37.802Z,47.10
2023-04-19T20:21:05.040Z,42.03
2023-04-19T20:23:32.165Z,48.88
2023-04-19T20:26:01.158Z,54.17
2023-04-19T20:28:28.300Z,47.85
2023-04-19T20:30:55.852Z,46.40
2023-04-19T20:33:23.023Z,61.25
2023-04-19T20:35:50.467Z,54.72
2023-04-19T20:38:18.396Z,47.72
2023-04-19T20:40:45.588Z,43.13
2023-04-19T20:43:12.811Z,38.70
2023-04-19T20:45:39.918Z,44.28
2023-04-19T20:48:08.540Z,41.38
2023-04-19T20:50:36.149Z,76.20
2023-04-19T20:53:03.259Z,172.15
2023-04-19T20:55:30.589Z,55.53
2023-04-19T20:57:57.729Z,42.25
2023-04-19T21:00:24.909Z,38.15
2023-04-19T21:02:52.150Z,34.08
2023-04-19T21:05:19.476Z,33.20
2023-04-19T21:07:46.690Z,32.13
2023-04-19T21:10:13.956Z,33.38
2023-04-19T21:12:41.160Z,38.05
2023-04-19T21:15:08.476Z,42.85
2023-04-19T21:17:36.151Z,40.50
2023-04-19T21:20:04.424Z,42.17
2023-04-19T21:22:31.565Z,67.65
2023-04-19T21:24:58.760Z,74.18
2023-04-19T21:27:25.851Z,51.05
2023-04-19T21:29:53.034Z,49.22
2023-04-19T21:32:20.160Z,84.85
2023-04-19T21:34:48.075Z,76.70
2023-04-19T21:37:16.399Z,59.30
2023-04-19T21:39:43.523Z,55.45
2023-04-19T21:42:11.253Z,42.38
2023-04-19T21:44:38.360Z,38.22
2023-04-19T21:47:05.573Z,39.97
2023-04-19T21:49:33.399Z,39.40
2023-04-19T21:52:00.602Z,40.15
2023-04-19T21:54:33.945Z,43.38
2023-04-19T21:57:01.650Z,39.63
2023-04-19T21:59:29.879Z,34.40
2023-04-19T22:01:57.184Z,39.00
2023-04-19T22:04:24.443Z,44.03
2023-04-19T22:06:51.601Z,85.60
2023-04-19T22:09:19.330Z,57.13
2023-04-19T22:11:46.447Z,53.80
2023-04-19T22:14:13.622Z,41.40
2023-04-19T22:16:42.184Z,41.17
2023-04-19T22:19:09.380Z,38.20
2023-04-19T22:21:36.513Z,39.97
2023-04-19T22:24:03.766Z,44.88
2023-04-19T22:26:30.911Z,50.50
2023-04-19T22:28:58.086Z,42.22
2023-04-19T22:31:26.062Z,37.55
2023-04-19T22:33:53.270Z,35.47
2023-04-19T22:36:20.631Z,33.03
2023-04-19T22:38:47.861Z,31.85
2023-04-19T22:41:15.932Z,35.42
2023-04-19T22:43:43.140Z,30.63
2023-04-19T22:46:10.296Z,34.95
2023-04-19T22:48:37.801Z,32.70
2023-04-19T22:51:04.988Z,32.15
2023-04-19T22:53:32.101Z,30.80
2023-04-19T22:55:59.208Z,47.20
2023-04-19T22:58:26.378Z,46.88
2023-04-19T23:00:53.562Z,43.17
2023-04-19T23:03:20.849Z,45.28
2023-04-19T23:05:48.078Z,41.00
2023-04-19T23:08:15.607Z,39.20
2023-04-19T23:10:43.523Z,38.70
2023-04-19T23:13:11.107Z,36.83
2023-04-19T23:15:39.263Z,38.40
2023-04-19T23:18:07.068Z,42.67
2023-04-19T23:20:34.375Z,38.28
2023-04-19T23:23:01.589Z,38.42
2023-04-19T23:25:28.782Z,36.78
2023-04-19T23:27:55.924Z,35.67
2023-04-19T23:30:23.033Z,36.63
2023-04-19T23:32:51.355Z,37.08
2023-04-19T23:35:18.537Z,38.83
2023-04-19T23:37:45.631Z,37.13
2023-04-19T23:40:12.847Z,39.65
2023-04-19T23:42:40.787Z,39.75
2023-04-19T23:45:08.995Z,40.53
2023-04-19T23:47:36.163Z,35.38
2023-04-19T23:50:03.367Z,31.65
2023-04-19T23:52:30.483Z,34.50
2023-04-19T23:54:57.598Z,34.42
2023-04-19T23:57:24.731Z,31.75
2023-04-19T23:59:51.834Z,34.63
